createdAt,value
2022-08-23T00:00:30.000Z,1006
2022-08-23T00:01:46.000Z,1006
2022-08-23T00:03:02.000Z,1006.1
2022-08-23T00:04:18.000Z,1006
2022-08-23T00:05:34.000Z,1006
2022-08-23T00:06:51.000Z,1006
2022-08-23T00:08:07.000Z,1006
2022-08-23T00:09:23.000Z,1006
2022-08-23T00:10:39.000Z,1006
2022-08-23T00:11:55.000Z,1006
2022-08-23T00:13:12.000Z,1006
2022-08-23T00:14:28.000Z,1006
2022-08-23T00:15:43.000Z,1006
2022-08-23T00:16:59.000Z,1006
2022-08-23T00:18:15.000Z,1006
2022-08-23T00:19:32.000Z,1006
2022-08-23T00:20:48.000Z,1005.9
2022-08-23T00:22:04.000Z,1006
2022-08-23T00:23:20.000Z,1006
2022-08-23T00:24:36.000Z,1005.9
2022-08-23T00:25:52.000Z,1006
2022-08-23T00:27:09.000Z,1005.9
2022-08-23T00:28:25.000Z,1006
2022-08-23T00:29:41.000Z,1005.9
2022-08-23T00:30:57.000Z,1005.9
2022-08-23T00:32:12.000Z,1005.9
2022-08-23T00:33:29.000Z,1005.9
2022-08-23T00:34:45.000Z,1005.8
2022-08-23T00:36:01.000Z,1005.8
2022-08-23T00:37:17.000Z,1005.9
2022-08-23T00:38:33.000Z,1005.9
2022-08-23T00:39:50.000Z,1005.9
2022-08-23T00:41:06.000Z,1005.9
2022-08-23T00:42:22.000Z,1005.9
2022-08-23T00:43:38.000Z,1005.9
2022-08-23T00:44:54.000Z,1005.9
2022-08-23T00:46:10.000Z,1005.9
2022-08-23T00:47:27.000Z,1005.9
2022-08-23T00:48:42.000Z,1005.9
2022-08-23T00:49:58.000Z,1005.9
2022-08-23T00:51:14.000Z,1005.9
2022-08-23T00:52:30.000Z,1005.8
2022-08-23T00:53:47.000Z,1005.8
2022-08-23T00:55:03.000Z,1005.9
2022-08-23T00:56:19.000Z,1005.8
2022-08-23T00:57:35.000Z,1005.9
2022-08-23T00:58:51.000Z,1005.8
2022-08-23T01:00:08.000Z,1005.8
2022-08-23T01:01:24.000Z,1005.8
2022-08-23T01:02:40.000Z,1005.8
2022-08-23T01:03:56.000Z,1005.8
2022-08-23T01:05:11.000Z,1005.8
2022-08-23T01:06:27.000Z,1005.8
2022-08-23T01:07:44.000Z,1005.8
2022-08-23T01:09:00.000Z,1005.8
2022-08-23T01:10:16.000Z,1005.8
2022-08-23T01:11:32.000Z,1005.8
2022-08-23T01:12:48.000Z,1005.8
2022-08-23T01:14:05.000Z,1005.8
2022-08-23T01:15:21.000Z,1005.8
2022-08-23T01:16:37.000Z,1005.8
2022-08-23T01:17:53.000Z,1005.8
2022-08-23T01:19:09.000Z,1005.8
2022-08-23T01:20:26.000Z,1005.8
2022-08-23T01:21:41.000Z,1005.8
2022-08-23T01:22:57.000Z,1005.9
2022-08-23T01:24:13.000Z,1005.9
2022-08-23T01:25:29.000Z,1005.9
2022-08-23T01:26:46.000Z,1005.9
2022-08-23T01:28:02.000Z,1005.9
2022-08-23T01:29:18.000Z,1005.8
2022-08-23T01:30:34.000Z,1006
2022-08-23T01:31:50.000Z,1005.9
2022-08-23T01:33:06.000Z,1005.9
2022-08-23T01:34:23.000Z,1005.9
2022-08-23T01:35:39.000Z,1005.9
2022-08-23T01:36:55.000Z,1005.9
2022-08-23T01:38:10.000Z,1005.9
2022-08-23T01:39:26.000Z,1005.9
2022-08-23T01:40:43.000Z,1005.9
2022-08-23T01:41:59.000Z,1005.9
2022-08-23T01:43:15.000Z,1006
2022-08-23T01:44:31.000Z,1005.9
2022-08-23T01:45:47.000Z,1005.9
2022-08-23T01:47:04.000Z,1005.9
2022-08-23T01:48:20.000Z,1005.9
2022-08-23T01:49:36.000Z,1005.9
2022-08-23T01:50:52.000Z,1006
2022-08-23T01:52:08.000Z,1006
2022-08-23T01:53:24.000Z,1005.9
2022-08-23T01:54:40.000Z,1006
2022-08-23T01:55:56.000Z,1006
2022-08-23T01:57:12.000Z,1006
2022-08-23T01:58:28.000Z,1006
2022-08-23T01:59:44.000Z,1006
2022-08-23T02:01:01.000Z,1006
2022-08-23T02:02:17.000Z,1006
2022-08-23T02:03:33.000Z,1006
2022-08-23T02:04:49.000Z,1005.9
2022-08-23T02:06:05.000Z,1005.9
2022-08-23T02:07:22.000Z,1005.9
2022-08-23T02:08:38.000Z,1006
2022-08-23T02:09:54.000Z,1006
2022-08-23T02:11:09.000Z,1006
2022-08-23T02:12:25.000Z,1005.9
2022-08-23T02:13:41.000Z,1006
2022-08-23T02:14:58.000Z,1006
2022-08-23T02:16:14.000Z,1006
2022-08-23T02:17:30.000Z,1006
2022-08-23T02:18:46.000Z,1006
2022-08-23T02:20:02.000Z,1006
2022-08-23T02:21:19.000Z,1006
2022-08-23T02:22:35.000Z,1006
2022-08-23T02:23:51.000Z,1006
2022-08-23T02:25:07.000Z,1005.9
2022-08-23T02:26:23.000Z,1006
2022-08-23T02:27:39.000Z,1006
2022-08-23T02:28:55.000Z,1006
2022-08-23T02:30:11.000Z,1006
2022-08-23T02:31:27.000Z,1006
2022-08-23T02:32:43.000Z,1006
2022-08-23T02:33:59.000Z,1006
2022-08-23T02:35:16.000Z,1006.1
2022-08-23T02:36:32.000Z,1006.1
2022-08-23T02:37:48.000Z,1006
2022-08-23T02:39:04.000Z,1006
2022-08-23T02:40:20.000Z,1006.1
2022-08-23T02:41:37.000Z,1006
2022-08-23T02:42:53.000Z,1006
2022-08-23T02:44:08.000Z,1006.1
2022-08-23T02:45:24.000Z,1006.1
2022-08-23T02:46:40.000Z,1006
2022-08-23T02:47:57.000Z,1006
2022-08-23T02:49:13.000Z,1006.1
2022-08-23T02:50:29.000Z,1006
2022-08-23T02:51:45.000Z,1006
2022-08-23T02:53:01.000Z,1006
2022-08-23T02:54:17.000Z,1006.1
2022-08-23T02:55:34.000Z,1006.1
2022-08-23T02:56:50.000Z,1006.1
2022-08-23T02:58:06.000Z,1006.1
2022-08-23T02:59:22.000Z,1006.1
2022-08-23T03:00:37.000Z,1006.1
2022-08-23T03:01:54.000Z,1006.1
2022-08-23T03:03:10.000Z,1006.1
2022-08-23T03:04:26.000Z,1006.1
2022-08-23T03:05:42.000Z,1006.1
2022-08-23T03:06:58.000Z,1006.1
2022-08-23T03:08:15.000Z,1006
2022-08-23T03:09:31.000Z,1006
2022-08-23T03:10:47.000Z,1006.1
2022-08-23T03:12:03.000Z,1006.1
2022-08-23T03:13:19.000Z,1006.1
2022-08-23T03:14:36.000Z,1006
2022-08-23T03:15:52.000Z,1006
2022-08-23T03:17:07.000Z,1006.1
2022-08-23T03:18:23.000Z,1006
2022-08-23T03:19:39.000Z,1006
2022-08-23T03:20:55.000Z,1006
2022-08-23T03:22:12.000Z,1006.1
2022-08-23T03:23:28.000Z,1006.1
2022-08-23T03:24:44.000Z,1006.1
2022-08-23T03:26:00.000Z,1006.1
2022-08-23T03:27:16.000Z,1006.2
2022-08-23T03:28:33.000Z,1006.2
2022-08-23T03:29:49.000Z,1006.1
2022-08-23T03:31:05.000Z,1006.1
2022-08-23T03:32:21.000Z,1006.1
2022-08-23T03:33:36.000Z,1006.1
2022-08-23T03:34:53.000Z,1006.2
2022-08-23T03:36:09.446Z,1006.2
2022-08-23T03:37:25.000Z,1006.2
2022-08-23T03:38:41.000Z,1006.1
2022-08-23T03:39:57.000Z,1006.1
2022-08-23T03:41:13.000Z,1006.1
2022-08-23T03:42:30.000Z,1006.1
2022-08-23T03:43:46.000Z,1006.2
2022-08-23T03:45:02.000Z,1006.2
2022-08-23T03:46:18.000Z,1006.1
2022-08-23T03:47:34.000Z,1006.2
2022-08-23T03:48:51.000Z,1006.1
2022-08-23T03:50:06.000Z,1006.1
2022-08-23T03:51:22.000Z,1006.1
2022-08-23T03:52:38.000Z,1006.2
2022-08-23T03:53:54.000Z,1006.2
2022-08-23T03:55:11.000Z,1006.2
2022-08-23T03:56:27.000Z,1006.2
2022-08-23T03:57:43.000Z,1006.2
2022-08-23T03:58:59.000Z,1006.2
2022-08-23T04:00:15.000Z,1006.2
2022-08-23T04:01:31.000Z,1006.2
2022-08-23T04:02:48.000Z,1006.2
2022-08-23T04:04:04.000Z,1006.2
2022-08-23T04:05:20.000Z,1006.2
2022-08-23T04:06:35.000Z,1006.2
2022-08-23T04:07:51.000Z,1006.3
2022-08-23T04:09:08.000Z,1006.2
2022-08-23T04:10:24.000Z,1006.3
2022-08-23T04:11:40.000Z,1006.2
2022-08-23T04:12:56.000Z,1006.2
2022-08-23T04:14:11.000Z,1006.3
2022-08-23T04:15:28.000Z,1006.2
2022-08-23T04:16:44.000Z,1006.3
2022-08-23T04:18:00.000Z,1006.3
2022-08-23T04:19:16.000Z,1006.4
2022-08-23T04:20:32.000Z,1006.4
2022-08-23T04:21:49.000Z,1006.4
2022-08-23T04:23:05.000Z,1006.5
2022-08-23T04:24:21.000Z,1006.5
2022-08-23T04:25:37.000Z,1006.5
2022-08-23T04:26:53.000Z,1006.5
2022-08-23T04:28:09.000Z,1006.5
2022-08-23T04:29:26.000Z,1006.5
2022-08-23T04:30:41.000Z,1006.5
2022-08-23T04:31:57.000Z,1006.6
2022-08-23T04:33:13.000Z,1006.6
2022-08-23T04:34:29.000Z,1006.5
2022-08-23T04:35:46.000Z,1006.5
2022-08-23T04:37:02.000Z,1006.5
2022-08-23T04:38:18.000Z,1006.5
2022-08-23T04:39:34.000Z,1006.5
2022-08-23T04:40:50.000Z,1006.5
2022-08-23T04:42:07.000Z,1006.5
2022-08-23T04:43:23.000Z,1006.4
2022-08-23T04:44:39.000Z,1006.5
2022-08-23T04:45:55.000Z,1006.5
2022-08-23T04:47:10.000Z,1006.5
2022-08-23T04:48:26.000Z,1006.6
2022-08-23T04:49:43.000Z,1006.6
2022-08-23T04:50:59.000Z,1006.6
2022-08-23T04:52:15.000Z,1006.6
2022-08-23T04:53:31.000Z,1006.7
2022-08-23T04:54:47.000Z,1006.6
2022-08-23T04:56:04.000Z,1006.7
2022-08-23T04:57:20.000Z,1006.7
2022-08-23T04:58:36.000Z,1006.7
2022-08-23T04:59:52.000Z,1006.7
2022-08-23T05:01:08.000Z,1006.7
2022-08-23T05:02:25.000Z,1006.8
2022-08-23T05:03:40.000Z,1006.8
2022-08-23T05:04:56.000Z,1006.8
2022-08-23T05:06:12.000Z,1006.7
2022-08-23T05:07:28.000Z,1006.8
2022-08-23T05:08:44.000Z,1006.9
2022-08-23T05:10:01.000Z,1006.8
2022-08-23T05:11:17.000Z,1006.7
2022-08-23T05:12:33.000Z,1006.7
2022-08-23T05:13:49.000Z,1006.6
2022-08-23T05:15:05.000Z,1006.7
2022-08-23T05:16:22.000Z,1006.7
2022-08-23T05:17:38.000Z,1006.7
2022-08-23T05:18:54.000Z,1006.7
2022-08-23T05:20:09.000Z,1006.8
2022-08-23T05:21:25.000Z,1006.8
2022-08-23T05:22:42.000Z,1006.7
2022-08-23T05:23:58.000Z,1006.7
2022-08-23T05:25:14.000Z,1006.7
2022-08-23T05:26:30.000Z,1006.7
2022-08-23T05:27:46.000Z,1006.7
2022-08-23T05:29:03.000Z,1006.7
2022-08-23T05:30:19.000Z,1006.7
2022-08-23T05:31:35.000Z,1006.7
2022-08-23T05:32:51.000Z,1006.8
2022-08-23T05:34:07.000Z,1006.8
2022-08-23T05:35:23.000Z,1006.8
2022-08-23T05:36:39.000Z,1006.8
2022-08-23T05:37:55.000Z,1006.8
2022-08-23T05:39:11.000Z,1006.8
2022-08-23T05:40:27.000Z,1006.8
2022-08-23T05:41:43.000Z,1006.9
2022-08-23T05:43:00.000Z,1007
2022-08-23T05:44:16.000Z,1006.9
2022-08-23T05:45:32.000Z,1006.9
2022-08-23T05:46:48.000Z,1006.9
2022-08-23T05:48:04.000Z,1007
2022-08-23T05:49:21.000Z,1006.9
2022-08-23T05:50:37.000Z,1006.9
2022-08-23T05:51:53.000Z,1006.9
2022-08-23T05:53:08.000Z,1007
2022-08-23T05:54:24.000Z,1006.9
2022-08-23T05:55:40.000Z,1006.9
2022-08-23T05:56:57.000Z,1007
2022-08-23T05:58:13.000Z,1006.9
2022-08-23T05:59:29.000Z,1007
2022-08-23T06:00:45.000Z,1006.9
2022-08-23T06:02:01.000Z,1007
2022-08-23T06:03:18.000Z,1007
2022-08-23T06:04:34.000Z,1006.9
2022-08-23T06:05:50.000Z,1006.9
2022-08-23T06:07:06.000Z,1007
2022-08-23T06:08:22.000Z,1007
2022-08-23T06:09:38.000Z,1007
2022-08-23T06:10:54.000Z,1007
2022-08-23T06:12:10.000Z,1007
2022-08-23T06:13:26.000Z,1007.1
2022-08-23T06:14:42.000Z,1007.1
2022-08-23T06:15:58.000Z,1007.1
2022-08-23T06:17:15.000Z,1007.1
2022-08-23T06:18:31.000Z,1007.1
2022-08-23T06:19:47.000Z,1007.1
2022-08-23T06:21:03.000Z,1007.1
2022-08-23T06:22:19.000Z,1007.1
2022-08-23T06:23:36.000Z,1007
2022-08-23T06:24:52.000Z,1007
2022-08-23T06:26:07.000Z,1007
2022-08-23T06:27:23.000Z,1007.1
2022-08-23T06:28:39.000Z,1007.1
2022-08-23T06:29:56.000Z,1007
2022-08-23T06:31:12.000Z,1007.1
2022-08-23T06:32:28.000Z,1007
2022-08-23T06:33:44.000Z,1007.1
2022-08-23T06:35:00.000Z,1007.1
2022-08-23T06:36:16.000Z,1007.1
2022-08-23T06:37:33.000Z,1007
2022-08-23T06:38:49.000Z,1007
2022-08-23T06:40:05.000Z,1007
2022-08-23T06:41:21.000Z,1007.1
2022-08-23T06:42:36.000Z,1007
2022-08-23T06:43:53.000Z,1007
2022-08-23T06:45:09.000Z,1007.1
2022-08-23T06:46:25.000Z,1007.2
2022-08-23T06:47:41.000Z,1007.2
2022-08-23T06:48:57.000Z,1007.1
2022-08-23T06:50:14.000Z,1007.1
2022-08-23T06:51:30.000Z,1007.1
2022-08-23T06:52:46.000Z,1007.2
2022-08-23T06:54:02.000Z,1007.1
2022-08-23T06:55:19.044Z,1007.1
2022-08-23T06:56:35.000Z,1007.1
2022-08-23T06:57:51.000Z,1007.1
2022-08-23T06:59:06.000Z,1007.1
2022-08-23T07:00:22.000Z,1007.1
2022-08-23T07:01:38.000Z,1007
2022-08-23T07:02:54.000Z,1007
2022-08-23T07:04:11.000Z,1007.1
2022-08-23T07:05:27.000Z,1007.1
2022-08-23T07:06:43.000Z,1007.1
2022-08-23T07:07:59.000Z,1007.1
2022-08-23T07:09:15.000Z,1007.2
2022-08-23T07:10:32.000Z,1007.2
2022-08-23T07:11:48.000Z,1007.2
2022-08-23T07:13:04.000Z,1007.1
2022-08-23T07:14:20.000Z,1007.2
2022-08-23T07:15:35.000Z,1007.2
2022-08-23T07:16:52.000Z,1007.2
2022-08-23T07:18:08.000Z,1007.2
2022-08-23T07:19:24.000Z,1007.3
2022-08-23T07:20:40.000Z,1007.3
2022-08-23T07:21:56.000Z,1007.3
2022-08-23T07:23:12.000Z,1007.3
2022-08-23T07:24:29.000Z,1007.3
2022-08-23T07:25:45.000Z,1007.3
2022-08-23T07:27:01.000Z,1007.4
2022-08-23T07:28:17.000Z,1007.4
2022-08-23T07:29:33.000Z,1007.3
2022-08-23T07:30:50.000Z,1007.3
2022-08-23T07:32:05.000Z,1007.4
2022-08-23T07:33:21.000Z,1007.4
2022-08-23T07:34:37.000Z,1007.3
2022-08-23T07:35:53.000Z,1007.4
2022-08-23T07:37:10.000Z,1007.4
2022-08-23T07:38:26.000Z,1007.4
2022-08-23T07:39:42.000Z,1007.4
2022-08-23T07:40:58.000Z,1007.4
2022-08-23T07:42:14.000Z,1007.4
2022-08-23T07:43:30.000Z,1007.4
2022-08-23T07:44:47.000Z,1007.4
2022-08-23T07:46:03.000Z,1007.4
2022-08-23T07:47:19.791Z,1007.4
2022-08-23T07:48:34.000Z,1007.4
2022-08-23T07:49:50.000Z,1007.5
2022-08-23T07:51:07.000Z,1007.5
2022-08-23T07:52:23.000Z,1007.4
2022-08-23T07:53:39.000Z,1007.5
2022-08-23T07:54:55.000Z,1007.5
2022-08-23T07:56:11.000Z,1007.5
2022-08-23T07:57:28.000Z,1007.5
2022-08-23T07:58:44.000Z,1007.5
2022-08-23T08:00:00.000Z,1007.5
2022-08-23T08:01:16.000Z,1007.5
2022-08-23T08:02:32.000Z,1007.5
2022-08-23T08:03:49.000Z,1007.6
2022-08-23T08:05:04.000Z,1007.5
2022-08-23T08:06:20.000Z,1007.6
2022-08-23T08:07:36.000Z,1007.6
2022-08-23T08:08:52.000Z,1007.7
2022-08-23T08:10:08.000Z,1007.6
2022-08-23T08:11:25.000Z,1007.6
2022-08-23T08:12:41.000Z,1007.6
2022-08-23T08:13:57.000Z,1007.6
2022-08-23T08:15:13.000Z,1007.6
2022-08-23T08:16:29.000Z,1007.6
2022-08-23T08:17:46.000Z,1007.6
2022-08-23T08:19:02.000Z,1007.7
2022-08-23T08:20:18.000Z,1007.6
2022-08-23T08:21:33.000Z,1007.7
2022-08-23T08:22:49.000Z,1007.6
2022-08-23T08:24:06.000Z,1007.6
2022-08-23T08:25:22.000Z,1007.6
2022-08-23T08:26:38.000Z,1007.7
2022-08-23T08:27:54.000Z,1007.7
2022-08-23T08:29:09.000Z,1007.7
2022-08-23T08:30:26.000Z,1007.7
2022-08-23T08:31:42.000Z,1007.7
2022-08-23T08:32:58.000Z,1007.7
2022-08-23T08:34:14.000Z,1007.7
2022-08-23T08:35:30.000Z,1007.7
2022-08-23T08:36:46.000Z,1007.7
2022-08-23T08:38:03.000Z,1007.6
2022-08-23T08:39:19.000Z,1007.7
2022-08-23T08:40:35.000Z,1007.6
2022-08-23T08:41:51.000Z,1007.6
2022-08-23T08:43:07.000Z,1007.6
2022-08-23T08:44:24.000Z,1007.6
2022-08-23T08:45:39.000Z,1007.6
2022-08-23T08:46:55.000Z,1007.6
2022-08-23T08:48:11.000Z,1007.5
2022-08-23T08:49:27.000Z,1007.6
2022-08-23T08:50:44.000Z,1007.5
2022-08-23T08:52:00.000Z,1007.5
2022-08-23T08:53:16.000Z,1007.6
2022-08-23T08:54:32.000Z,1007.5
2022-08-23T08:55:48.000Z,1007.6
2022-08-23T08:57:05.000Z,1007.6
2022-08-23T08:58:21.000Z,1007.6
2022-08-23T08:59:37.000Z,1007.6
2022-08-23T09:00:53.000Z,1007.6
2022-08-23T09:02:08.000Z,1007.7
2022-08-23T09:03:24.000Z,1007.6
2022-08-23T09:04:41.000Z,1007.7
2022-08-23T09:05:57.000Z,1007.7
2022-08-23T09:07:13.000Z,1007.7
2022-08-23T09:08:29.000Z,1007.8
2022-08-23T09:09:45.000Z,1007.7
2022-08-23T09:11:02.000Z,1007.8
2022-08-23T09:12:18.299Z,1007.7
2022-08-23T09:13:34.000Z,1007.7
2022-08-23T09:14:50.000Z,1007.7
2022-08-23T09:16:06.000Z,1007.7
2022-08-23T09:17:23.000Z,1007.6
2022-08-23T09:18:38.000Z,1007.6
2022-08-23T09:19:54.000Z,1007.6
2022-08-23T09:21:10.000Z,1007.6
2022-08-23T09:22:26.000Z,1007.7
2022-08-23T09:23:43.000Z,1007.6
2022-08-23T09:24:59.000Z,1007.7
2022-08-23T09:26:15.000Z,1007.6
2022-08-23T09:27:31.000Z,1007.6
2022-08-23T09:28:47.000Z,1007.6
2022-08-23T09:30:03.000Z,1007.6
2022-08-23T09:31:20.000Z,1007.5
2022-08-23T09:32:36.000Z,1007.5
2022-08-23T09:33:52.000Z,1007.5
2022-08-23T09:35:07.000Z,1007.6
2022-08-23T09:36:23.000Z,1007.6
2022-08-23T09:37:40.000Z,1007.6
2022-08-23T09:38:56.000Z,1007.6
2022-08-23T09:40:12.000Z,1007.5
2022-08-23T09:41:28.000Z,1007.5
2022-08-23T09:42:44.000Z,1007.5
2022-08-23T09:44:01.000Z,1007.5
2022-08-23T09:45:17.000Z,1007.5
2022-08-23T09:46:33.000Z,1007.5
2022-08-23T09:47:49.000Z,1007.5
2022-08-23T09:49:05.000Z,1007.5
2022-08-23T09:50:21.000Z,1007.5
2022-08-23T09:51:37.000Z,1007.5
2022-08-23T09:52:53.000Z,1007.5
2022-08-23T09:54:09.000Z,1007.5
2022-08-23T09:55:25.000Z,1007.5
2022-08-23T09:56:41.000Z,1007.6
2022-08-23T09:57:58.000Z,1007.6
2022-08-23T09:59:14.000Z,1007.5
2022-08-23T10:00:30.000Z,1007.6
2022-08-23T10:01:46.000Z,1007.5
2022-08-23T10:03:02.000Z,1007.5
2022-08-23T10:04:19.000Z,1007.5
2022-08-23T10:05:35.000Z,1007.5
2022-08-23T10:06:51.000Z,1007.5
2022-08-23T10:08:06.000Z,1007.4
2022-08-23T10:09:22.000Z,1007.5
2022-08-23T10:10:39.000Z,1007.6
2022-08-23T10:11:55.000Z,1007.5
2022-08-23T10:13:11.000Z,1007.5
2022-08-23T10:14:27.000Z,1007.5
2022-08-23T10:15:43.000Z,1007.5
2022-08-23T10:16:59.000Z,1007.4
2022-08-23T10:18:16.000Z,1007.3
2022-08-23T10:19:32.000Z,1007.3
2022-08-23T10:20:48.000Z,1007.3
2022-08-23T10:22:04.000Z,1007.4
2022-08-23T10:23:20.000Z,1007.3
2022-08-23T10:24:36.000Z,1007.3
2022-08-23T10:25:52.000Z,1007.3
2022-08-23T10:27:08.000Z,1007.4
2022-08-23T10:28:24.000Z,1007.3
2022-08-23T10:29:40.000Z,1007.3
2022-08-23T10:30:57.000Z,1007.3
2022-08-23T10:32:13.000Z,1007.3
2022-08-23T10:33:29.000Z,1007.4
2022-08-23T10:34:45.000Z,1007.3
2022-08-23T10:36:01.000Z,1007.3
2022-08-23T10:37:18.000Z,1007.4
2022-08-23T10:38:34.000Z,1007.3
2022-08-23T10:39:50.625Z,1007.3
2022-08-23T10:41:05.000Z,1007.3
2022-08-23T10:42:21.000Z,1007.2
2022-08-23T10:43:37.000Z,1007.4
2022-08-23T10:44:54.000Z,1007.3
2022-08-23T10:46:10.000Z,1007.2
2022-08-23T10:47:26.000Z,1007.2
2022-08-23T10:48:42.000Z,1007.2
2022-08-23T10:49:58.000Z,1007.2
2022-08-23T10:51:15.000Z,1007.3
2022-08-23T10:52:31.000Z,1007.2
2022-08-23T10:53:47.000Z,1007.2
2022-08-23T10:55:03.000Z,1007.2
2022-08-23T10:56:19.000Z,1007.2
2022-08-23T10:57:35.000Z,1007.2
2022-08-23T10:58:51.504Z,1007.1
2022-08-23T11:00:07.000Z,1007.2
2022-08-23T11:01:23.000Z,1007.2
2022-08-23T11:02:39.000Z,1007.2
2022-08-23T11:03:56.000Z,1007.2
2022-08-23T11:05:12.000Z,1007.2
2022-08-23T11:06:28.000Z,1007.2
2022-08-23T11:07:44.000Z,1007.2
2022-08-23T11:09:00.000Z,1007.1
2022-08-23T11:10:17.000Z,1007.1
2022-08-23T11:11:33.000Z,1007.1
2022-08-23T11:12:49.000Z,1007.1
2022-08-23T11:14:04.000Z,1007.1
2022-08-23T11:15:20.000Z,1007
2022-08-23T11:16:36.000Z,1007
2022-08-23T11:17:53.000Z,1007
2022-08-23T11:19:09.000Z,1006.9
2022-08-23T11:20:25.000Z,1007
2022-08-23T11:21:41.000Z,1007
2022-08-23T11:22:57.000Z,1006.9
2022-08-23T11:24:14.000Z,1007
2022-08-23T11:25:30.000Z,1006.9
2022-08-23T11:26:46.000Z,1007.1
2022-08-23T11:28:02.000Z,1007
2022-08-23T11:29:18.000Z,1007
2022-08-23T11:30:34.000Z,1006.9
2022-08-23T11:31:50.000Z,1006.9
2022-08-23T11:33:06.000Z,1006.9
2022-08-23T11:34:22.000Z,1006.9
2022-08-23T11:35:38.000Z,1006.8
2022-08-23T11:36:55.000Z,1006.9
2022-08-23T11:38:11.000Z,1006.9
2022-08-23T11:39:27.000Z,1006.9
2022-08-23T11:40:43.000Z,1006.8
2022-08-23T11:41:59.000Z,1006.8
2022-08-23T11:43:15.000Z,1006.8
2022-08-23T11:44:32.000Z,1006.8
2022-08-23T11:45:48.000Z,1006.9
2022-08-23T11:47:03.000Z,1006.8
2022-08-23T11:48:19.000Z,1006.8
2022-08-23T11:49:35.000Z,1006.9
2022-08-23T11:50:52.000Z,1006.8
2022-08-23T11:52:08.000Z,1006.8
2022-08-23T11:53:24.000Z,1006.8
2022-08-23T11:54:40.000Z,1006.8
2022-08-23T11:55:56.000Z,1006.8
2022-08-23T11:57:13.000Z,1006.8
2022-08-23T11:58:29.000Z,1006.8
2022-08-23T11:59:45.000Z,1006.8
2022-08-23T12:01:01.000Z,1006.8
2022-08-23T12:02:17.000Z,1006.8
2022-08-23T12:03:33.000Z,1006.8
2022-08-23T12:04:49.000Z,1006.8
2022-08-23T12:06:05.000Z,1006.9
2022-08-23T12:07:21.000Z,1006.8
2022-08-23T12:08:37.000Z,1006.9
2022-08-23T12:09:54.000Z,1006.9
2022-08-23T12:11:10.000Z,1006.9
2022-08-23T12:12:26.000Z,1006.8
2022-08-23T12:13:42.000Z,1006.8
2022-08-23T12:14:58.000Z,1006.9
2022-08-23T12:16:14.000Z,1006.9
2022-08-23T12:17:31.000Z,1006.9
2022-08-23T12:18:47.000Z,1006.9
2022-08-23T12:20:03.000Z,1006.8
2022-08-23T12:21:18.000Z,1006.8
2022-08-23T12:22:34.000Z,1006.8
2022-08-23T12:23:51.000Z,1006.8
2022-08-23T12:25:07.000Z,1006.8
2022-08-23T12:26:23.000Z,1006.7
2022-08-23T12:27:39.000Z,1006.7
2022-08-23T12:28:55.000Z,1006.7
2022-08-23T12:30:12.000Z,1006.7
2022-08-23T12:31:28.000Z,1006.7
2022-08-23T12:32:44.000Z,1006.7
2022-08-23T12:34:00.000Z,1006.7
2022-08-23T12:35:16.000Z,1006.7
2022-08-23T12:36:33.000Z,1006.7
2022-08-23T12:37:48.000Z,1006.8
2022-08-23T12:39:04.000Z,1006.8
2022-08-23T12:40:20.000Z,1006.8
2022-08-23T12:41:36.000Z,1006.8
2022-08-23T12:42:53.000Z,1006.8
2022-08-23T12:44:08.000Z,1006.8
2022-08-23T12:45:24.000Z,1006.7
2022-08-23T12:46:40.000Z,1006.8
2022-08-23T12:47:56.000Z,1006.8
2022-08-23T12:49:13.000Z,1006.7
2022-08-23T12:50:29.000Z,1006.6
2022-08-23T12:51:45.000Z,1006.7
2022-08-23T12:53:01.000Z,1006.7
2022-08-23T12:54:17.000Z,1006.7
2022-08-23T12:55:33.000Z,1006.7
2022-08-23T12:56:50.000Z,1006.7
2022-08-23T12:58:06.000Z,1006.6
2022-08-23T12:59:22.000Z,1006.7
2022-08-23T13:00:37.000Z,1006.6
2022-08-23T13:01:53.000Z,1006.6
2022-08-23T13:03:10.000Z,1006.6
2022-08-23T13:04:26.000Z,1006.6
2022-08-23T13:05:42.000Z,1006.6
2022-08-23T13:06:58.000Z,1006.5
2022-08-23T13:08:14.000Z,1006.5
2022-08-23T13:09:31.000Z,1006.5
2022-08-23T13:10:47.000Z,1006.6
2022-08-23T13:12:03.000Z,1006.6
2022-08-23T13:13:19.000Z,1006.5
2022-08-23T13:14:35.000Z,1006.4
2022-08-23T13:15:52.000Z,1006.6
2022-08-23T13:17:07.000Z,1006.5
2022-08-23T13:18:23.000Z,1006.6
2022-08-23T13:19:39.000Z,1006.6
2022-08-23T13:20:55.000Z,1006.5
2022-08-23T13:22:12.000Z,1006.5
2022-08-23T13:23:28.000Z,1006.4
2022-08-23T13:24:44.000Z,1006.3
2022-08-23T13:26:00.000Z,1006.5
2022-08-23T13:27:16.000Z,1006.6
2022-08-23T13:28:32.000Z,1006.5
2022-08-23T13:29:49.000Z,1006.5
2022-08-23T13:31:05.000Z,1006.5
2022-08-23T13:32:21.000Z,1006.5
2022-08-23T13:33:36.000Z,1006.5
2022-08-23T13:34:52.943Z,1006.5
2022-08-23T13:36:09.000Z,1006.4
2022-08-23T13:37:25.550Z,1006.4
2022-08-23T13:38:41.000Z,1006.4
2022-08-23T13:39:57.000Z,1006.4
2022-08-23T13:41:13.000Z,1006.5
2022-08-23T13:42:30.000Z,1006.4
2022-08-23T13:43:46.000Z,1006.4
2022-08-23T13:45:02.000Z,1006.4
2022-08-23T13:46:18.000Z,1006.4
2022-08-23T13:47:34.000Z,1006.4
2022-08-23T13:48:51.000Z,1006.4
2022-08-23T13:50:06.000Z,1006.4
2022-08-23T13:51:22.000Z,1006.3
2022-08-23T13:52:38.000Z,1006.3
2022-08-23T13:53:54.000Z,1006.3
2022-08-23T13:55:11.000Z,1006.3
2022-08-23T13:56:27.000Z,1006.3
2022-08-23T13:57:43.000Z,1006.3
2022-08-23T13:58:59.000Z,1006.3
2022-08-23T14:00:15.000Z,1006.3
2022-08-23T14:01:31.000Z,1006.2
2022-08-23T14:02:48.000Z,1006.4
2022-08-23T14:04:04.000Z,1006.3
2022-08-23T14:05:20.000Z,1006.4
2022-08-23T14:06:35.000Z,1006.4
2022-08-23T14:07:51.000Z,1006.3
2022-08-23T14:09:08.000Z,1006.3
2022-08-23T14:10:24.000Z,1006.4
2022-08-23T14:11:40.000Z,1006.4
2022-08-23T14:12:56.000Z,1006.4
2022-08-23T14:14:12.000Z,1006.4
2022-08-23T14:15:29.000Z,1006.5
2022-08-23T14:16:45.000Z,1006.5
2022-08-23T14:18:01.000Z,1006.4
2022-08-23T14:19:17.000Z,1006.4
2022-08-23T14:20:33.000Z,1006.5
2022-08-23T14:21:50.000Z,1006.4
2022-08-23T14:23:05.000Z,1006.4
2022-08-23T14:24:21.000Z,1006.4
2022-08-23T14:25:37.000Z,1006.3
2022-08-23T14:26:53.000Z,1006.3
2022-08-23T14:28:10.000Z,1006.3
2022-08-23T14:29:26.000Z,1006.3
2022-08-23T14:30:42.000Z,1006.3
2022-08-23T14:31:58.000Z,1006.3
2022-08-23T14:33:14.000Z,1006.3
2022-08-23T14:34:30.000Z,1006.4
2022-08-23T14:35:47.000Z,1006.4
2022-08-23T14:37:03.000Z,1006.3
2022-08-23T14:38:19.000Z,1006.3
2022-08-23T14:39:34.000Z,1006.3
2022-08-23T14:40:50.000Z,1006.4
2022-08-23T14:42:07.000Z,1006.3
2022-08-23T14:43:23.000Z,1006.3
2022-08-23T14:44:39.000Z,1006.3
2022-08-23T14:45:55.000Z,1006.2
2022-08-23T14:47:11.000Z,1006.3
2022-08-23T14:48:28.000Z,1006.3
2022-08-23T14:49:44.000Z,1006.2
2022-08-23T14:51:00.000Z,1006.3
2022-08-23T14:52:16.000Z,1006.2
2022-08-23T14:53:32.000Z,1006.3
2022-08-23T14:54:49.000Z,1006.2
2022-08-23T14:56:04.000Z,1006.2
2022-08-23T14:57:20.000Z,1006.2
2022-08-23T14:58:36.000Z,1006.1
2022-08-23T14:59:52.000Z,1006.1
2022-08-23T15:01:09.000Z,1006.2
2022-08-23T15:02:25.000Z,1006
2022-08-23T15:03:41.000Z,1006.2
2022-08-23T15:04:57.000Z,1006.2
2022-08-23T15:06:13.000Z,1006.2
2022-08-23T15:07:29.000Z,1006.2
2022-08-23T15:08:46.000Z,1006.2
2022-08-23T15:10:02.000Z,1006.2
2022-08-23T15:11:18.000Z,1006.3
2022-08-23T15:12:33.000Z,1006.2
2022-08-23T15:13:49.000Z,1006.3
2022-08-23T15:15:06.000Z,1006.2
2022-08-23T15:16:22.000Z,1006.2
2022-08-23T15:17:38.000Z,1006.3
2022-08-23T15:18:54.000Z,1006.2
2022-08-23T15:20:10.000Z,1006.2
2022-08-23T15:21:27.000Z,1006.2
2022-08-23T15:22:43.000Z,1006.2
2022-08-23T15:23:59.000Z,1006.2
2022-08-23T15:25:15.000Z,1006.1
2022-08-23T15:26:31.000Z,1006.1
2022-08-23T15:27:48.000Z,1006.1
2022-08-23T15:29:03.000Z,1006.2
2022-08-23T15:30:19.000Z,1006.1
2022-08-23T15:31:35.000Z,1006.1
2022-08-23T15:32:51.000Z,1006.2
2022-08-23T15:34:08.000Z,1006.2
2022-08-23T15:35:24.000Z,1006.2
2022-08-23T15:36:40.000Z,1006.2
2022-08-23T15:37:56.000Z,1006.2
2022-08-23T15:39:12.000Z,1006.2
2022-08-23T15:40:28.000Z,1006.2
2022-08-23T15:41:45.000Z,1006.2
2022-08-23T15:43:01.000Z,1006.1
2022-08-23T15:44:17.000Z,1006.1
2022-08-23T15:45:32.000Z,1006
2022-08-23T15:46:48.000Z,1006.1
2022-08-23T15:48:05.000Z,1006.1
2022-08-23T15:49:21.000Z,1006.1
2022-08-23T15:50:37.000Z,1006.1
2022-08-23T15:51:53.000Z,1006
2022-08-23T15:53:09.000Z,1006
2022-08-23T15:54:26.000Z,1006
2022-08-23T15:55:42.000Z,1006
2022-08-23T15:56:58.690Z,1006.1
2022-08-23T15:58:14.000Z,1006.2